»·PEaware :: N6515D KVCV-KSBA

N6515D :: KVCV-KSBA

FLIGHT INFORMATION

Flight Status: Arrived
Operator: Privately registered:
United States
More flights under this callsign
Pilot: Charles S. (11412)
Aircraft: Unknown
(DA62)
More flights by this aircraft type
Origin: KVCV Socal Logistics
United States
Destination: KSBA Santa Barbara Mun
United States
More flights between these airports :: More routes between these airports
Route: +PMD V12 RZS
File this flight plan on PilotEdge
Remarks:
Altitude:
(Current/Filed)
10,000ft
Speed:
(Current/Filed)
170kts
Departed: 23-May-18 03:05 PM
Arrived: 23-May-18 04:03 PM
Distance/Time
Traveled:
122nm/0:58
Distance/Time
To Go:
Arrived

Flight Plot

Page will automatically refresh every two minutes.


Map Options




Map Legend


Flown Route
Filed Route
Departure Airport
Arrival Airport
Navaid (VOR, NDB)
Fix

Horizontal Profiles

Position Reports

Time Latitude Longitude Heading Altitude Ground
Speed
23-May-18 14:56 34.588333 -117.376341 313 2870ft 0kts
23-May-18 14:57 34.588333 -117.376341 313 2870ft 0kts
23-May-18 14:58 34.588333 -117.376341 313 2870ft 0kts
23-May-18 14:59 34.588333 -117.376341 313 2870ft 0kts
23-May-18 15:00 34.588333 -117.376341 313 2870ft 0kts
23-May-18 15:01 34.588333 -117.376341 313 2870ft 0kts
23-May-18 15:02 34.592922 -117.372743 45 2861ft 20kts
23-May-18 15:03 34.595393 -117.367486 9 2851ft 30kts
23-May-18 15:04 34.600166 -117.366618 327 2841ft 24kts
23-May-18 15:05 34.587005 -117.382803 222 3144ft 98kts
23-May-18 15:06 34.582379 -117.420927 266 3919ft 132kts
23-May-18 15:07 34.581124 -117.467382 266 4736ft 143kts
23-May-18 15:08 34.582661 -117.516115 273 5536ft 144kts
23-May-18 15:09 34.586831 -117.563852 274 6332ft 141kts
23-May-18 15:10 34.591076 -117.610525 272 7126ft 139kts
23-May-18 15:11 34.595001 -117.654473 272 7877ft 138kts
23-May-18 15:12 34.599189 -117.701073 272 8678ft 139kts
23-May-18 15:13 34.603312 -117.746986 272 9465ft 139kts
23-May-18 15:14 34.607534 -117.794579 273 10011ft 156kts
23-May-18 15:15 34.612534 -117.850844 273 10006ft 177kts
23-May-18 15:16 34.617777 -117.909968 273 10006ft 181kts
23-May-18 15:17 34.623113 -117.970563 273 10009ft 182kts
23-May-18 15:18 34.628404 -118.031085 273 10013ft 182kts
23-May-18 15:19 34.629473 -118.091494 263 10009ft 181kts
23-May-18 15:20 34.625533 -118.152235 263 10007ft 181kts
23-May-18 15:21 34.621593 -118.212534 263 10004ft 181kts
23-May-18 15:22 34.617595 -118.273291 263 10002ft 181kts
23-May-18 15:23 34.613566 -118.334034 263 10001ft 180kts
23-May-18 15:24 34.609525 -118.394429 263 10017ft 180kts
23-May-18 15:25 34.605509 -118.454078 263 10033ft 179kts
23-May-18 15:26 34.601396 -118.514366 264 10051ft 179kts
23-May-18 15:27 34.597309 -118.574513 264 10041ft 179kts
23-May-18 15:28 34.593177 -118.634791 264 10043ft 179kts
23-May-18 15:29 34.589127 -118.693157 263 10044ft 179kts
23-May-18 15:30 34.585365 -118.747223 263 10043ft 179kts
23-May-18 15:31 34.581632 -118.800421 263 10040ft 180kts
23-May-18 15:32 34.577986 -118.852070 262 10039ft 180kts
23-May-18 15:33 34.574308 -118.903853 262 10038ft 180kts
23-May-18 15:34 34.570309 -118.959781 262 10037ft 180kts
23-May-18 15:35 34.566326 -119.015153 262 10036ft 181kts
23-May-18 15:36 34.562096 -119.073482 262 10037ft 181kts
23-May-18 15:37 34.557726 -119.133370 262 10039ft 180kts
23-May-18 15:38 34.553459 -119.191434 262 10041ft 180kts
23-May-18 15:39 34.549050 -119.251132 262 10044ft 179kts
23-May-18 15:40 34.544849 -119.308532 262 10045ft 179kts
23-May-18 15:41 34.540363 -119.368579 262 10045ft 180kts
23-May-18 15:42 34.535832 -119.428703 262 10045ft 180kts
23-May-18 15:43 34.531276 -119.488766 262 10045ft 180kts
23-May-18 15:44 34.526667 -119.549228 262 9437ft 175kts
23-May-18 15:45 34.512875 -119.600959 241 8463ft 165kts
23-May-18 15:46 34.496265 -119.641979 241 7631ft 162kts
23-May-18 15:47 34.480449 -119.680876 241 6832ft 160kts
23-May-18 15:48 34.464775 -119.719259 241 6036ft 159kts
23-May-18 15:49 34.449566 -119.756356 241 5259ft 158kts
23-May-18 15:50 34.434197 -119.793794 241 5014ft 155kts
23-May-18 15:51 34.417615 -119.833981 241 5009ft 167kts
23-May-18 15:52 34.398872 -119.879255 241 5009ft 169kts
23-May-18 15:53 34.381347 -119.921554 241 5008ft 170kts
23-May-18 15:54 34.368381 -119.963756 277 4618ft 175kts
23-May-18 15:55 34.378570 -120.012640 282 3661ft 152kts
23-May-18 15:56 34.390417 -120.060019 308 2634ft 148kts
23-May-18 15:57 34.420730 -120.058601 58 1999ft 136kts
23-May-18 15:58 34.424255 -120.013901 91 2005ft 140kts
23-May-18 15:59 34.425139 -119.965604 90 1815ft 155kts
23-May-18 16:00 34.426233 -119.917147 90 1143ft 109kts
23-May-18 16:01 34.426848 -119.885759 92 571ft 92kts
23-May-18 16:02 34.427505 -119.855063 91 70ft 89kts
23-May-18 16:03 34.428760 -119.839015 348 17ft 4kts
23-May-18 16:04 34.430910 -119.839209 67 17ft 0kts
23-May-18 16:05 34.431692 -119.836994 4 17ft 12kts
23-May-18 16:06 34.431966 -119.837090 334 17ft 0kts

Navigation Log

Ident Type
1. KVCV Airport
2. PMD Navaid
3. EMUXY Fix
4. RZS Navaid
5. KSBA Airport